sensor_id;sensor_type;location;lat;lon;timestamp;P1;durP1;ratioP1;P2;durP2;ratioP2
67274;SDS011;55463;52.324;5.122;2024-03-08T00:00:19;31.80;;;17.85;;
67274;SDS011;55463;52.324;5.122;2024-03-08T00:02:45;33.35;;;17.00;;
67274;SDS011;55463;52.324;5.122;2024-03-08T00:05:11;35.60;;;17.70;;
67274;SDS011;55463;52.324;5.122;2024-03-08T00:07:38;33.58;;;17.40;;
67274;SDS011;55463;52.324;5.122;2024-03-08T00:10:04;37.00;;;17.27;;
67274;SDS011;55463;52.324;5.122;2024-03-08T00:12:37;35.10;;;16.67;;
67274;SDS011;55463;52.324;5.122;2024-03-08T00:15:09;36.03;;;17.52;;
67274;SDS011;55463;52.324;5.122;2024-03-08T00:17:37;32.17;;;17.00;;
67274;SDS011;55463;52.324;5.122;2024-03-08T00:20:03;33.13;;;17.10;;
67274;SDS011;55463;52.324;5.122;2024-03-08T00:22:33;35.28;;;18.15;;
67274;SDS011;55463;52.324;5.122;2024-03-08T00:24:59;31.45;;;16.00;;
67274;SDS011;55463;52.324;5.122;2024-03-08T00:27:25;30.10;;;16.30;;
67274;SDS011;55463;52.324;5.122;2024-03-08T00:29:50;29.00;;;16.83;;
67274;SDS011;55463;52.324;5.122;2024-03-08T00:32:15;31.48;;;15.30;;
67274;SDS011;55463;52.324;5.122;2024-03-08T00:34:42;36.00;;;17.25;;
67274;SDS011;55463;52.324;5.122;2024-03-08T00:37:08;31.77;;;16.60;;
67274;SDS011;55463;52.324;5.122;2024-03-08T00:39:33;34.60;;;16.92;;
67274;SDS011;55463;52.324;5.122;2024-03-08T00:41:59;24.55;;;14.43;;
67274;SDS011;55463;52.324;5.122;2024-03-08T00:44:24;30.88;;;15.30;;
67274;SDS011;55463;52.324;5.122;2024-03-08T00:46:50;32.33;;;16.48;;
67274;SDS011;55463;52.324;5.122;2024-03-08T00:49:15;30.70;;;16.52;;
67274;SDS011;55463;52.324;5.122;2024-03-08T00:51:41;30.45;;;16.02;;
67274;SDS011;55463;52.324;5.122;2024-03-08T00:54:08;33.33;;;15.70;;
67274;SDS011;55463;52.324;5.122;2024-03-08T00:56:34;31.80;;;15.23;;
67274;SDS011;55463;52.324;5.122;2024-03-08T00:59:00;35.30;;;16.55;;
67274;SDS011;55463;52.324;5.122;2024-03-08T01:01:27;29.17;;;16.00;;
67274;SDS011;55463;52.324;5.122;2024-03-08T01:03:53;32.03;;;16.63;;
67274;SDS011;55463;52.324;5.122;2024-03-08T01:06:18;31.35;;;15.68;;
67274;SDS011;55463;52.324;5.122;2024-03-08T01:08:44;33.72;;;16.00;;
67274;SDS011;55463;52.324;5.122;2024-03-08T01:11:10;26.98;;;15.82;;
67274;SDS011;55463;52.324;5.122;2024-03-08T01:13:38;34.10;;;17.08;;
67274;SDS011;55463;52.324;5.122;2024-03-08T01:16:04;31.48;;;16.98;;
67274;SDS011;55463;52.324;5.122;2024-03-08T01:18:30;28.77;;;16.75;;
67274;SDS011;55463;52.324;5.122;2024-03-08T01:20:55;31.77;;;15.98;;
67274;SDS011;55463;52.324;5.122;2024-03-08T01:23:21;31.70;;;16.63;;
67274;SDS011;55463;52.324;5.122;2024-03-08T01:25:46;31.23;;;17.10;;
67274;SDS011;55463;52.324;5.122;2024-03-08T01:28:14;33.40;;;16.58;;
67274;SDS011;55463;52.324;5.122;2024-03-08T01:30:39;32.83;;;16.60;;
67274;SDS011;55463;52.324;5.122;2024-03-08T01:33:05;33.60;;;17.13;;
67274;SDS011;55463;52.324;5.122;2024-03-08T01:35:30;29.13;;;16.20;;
67274;SDS011;55463;52.324;5.122;2024-03-08T01:37:56;33.58;;;16.95;;
67274;SDS011;55463;52.324;5.122;2024-03-08T01:40:21;31.52;;;16.80;;
67274;SDS011;55463;52.324;5.122;2024-03-08T01:42:47;29.08;;;16.05;;
67274;SDS011;55463;52.324;5.122;2024-03-08T01:45:13;32.60;;;17.58;;
67274;SDS011;55463;52.324;5.122;2024-03-08T01:47:38;37.08;;;18.23;;
67274;SDS011;55463;52.324;5.122;2024-03-08T01:50:04;30.58;;;16.65;;
67274;SDS011;55463;52.324;5.122;2024-03-08T01:52:31;29.23;;;18.25;;
67274;SDS011;55463;52.324;5.122;2024-03-08T01:55:02;33.88;;;17.23;;
67274;SDS011;55463;52.324;5.122;2024-03-08T01:57:32;32.15;;;18.38;;
67274;SDS011;55463;52.324;5.122;2024-03-08T01:59:58;34.25;;;16.23;;
67274;SDS011;55463;52.324;5.122;2024-03-08T02:02:28;33.92;;;17.08;;
67274;SDS011;55463;52.324;5.122;2024-03-08T02:04:56;33.75;;;17.00;;
67274;SDS011;55463;52.324;5.122;2024-03-08T02:07:22;31.58;;;17.88;;
67274;SDS011;55463;52.324;5.122;2024-03-08T02:09:47;30.38;;;16.92;;
67274;SDS011;55463;52.324;5.122;2024-03-08T02:12:13;27.77;;;16.42;;
67274;SDS011;55463;52.324;5.122;2024-03-08T02:14:38;30.38;;;17.40;;
67274;SDS011;55463;52.324;5.122;2024-03-08T02:17:05;37.53;;;17.98;;
67274;SDS011;55463;52.324;5.122;2024-03-08T02:19:30;30.65;;;17.20;;
67274;SDS011;55463;52.324;5.122;2024-03-08T02:21:57;32.15;;;17.10;;
67274;SDS011;55463;52.324;5.122;2024-03-08T02:24:22;35.25;;;17.77;;
67274;SDS011;55463;52.324;5.122;2024-03-08T02:26:49;31.30;;;17.33;;
67274;SDS011;55463;52.324;5.122;2024-03-08T02:29:14;33.22;;;18.58;;
67274;SDS011;55463;52.324;5.122;2024-03-08T02:31:40;31.55;;;17.23;;
67274;SDS011;55463;52.324;5.122;2024-03-08T02:34:05;35.25;;;19.02;;
67274;SDS011;55463;52.324;5.122;2024-03-08T02:36:31;32.22;;;17.63;;
67274;SDS011;55463;52.324;5.122;2024-03-08T02:39:01;31.80;;;18.02;;
67274;SDS011;55463;52.324;5.122;2024-03-08T02:41:27;28.15;;;16.33;;
67274;SDS011;55463;52.324;5.122;2024-03-08T02:43:53;38.28;;;19.08;;
67274;SDS011;55463;52.324;5.122;2024-03-08T02:46:20;31.50;;;18.50;;
67274;SDS011;55463;52.324;5.122;2024-03-08T02:48:45;30.48;;;17.35;;
67274;SDS011;55463;52.324;5.122;2024-03-08T02:51:11;32.75;;;18.30;;
67274;SDS011;55463;52.324;5.122;2024-03-08T02:53:38;31.80;;;17.63;;
67274;SDS011;55463;52.324;5.122;2024-03-08T02:56:04;34.67;;;18.42;;
67274;SDS011;55463;52.324;5.122;2024-03-08T02:58:36;43.00;;;18.83;;
67274;SDS011;55463;52.324;5.122;2024-03-08T03:01:01;31.98;;;17.05;;
67274;SDS011;55463;52.324;5.122;2024-03-08T03:03:27;29.63;;;17.05;;
67274;SDS011;55463;52.324;5.122;2024-03-08T03:05:53;33.55;;;18.67;;
67274;SDS011;55463;52.324;5.122;2024-03-08T03:08:21;33.13;;;18.27;;
67274;SDS011;55463;52.324;5.122;2024-03-08T03:10:47;34.55;;;17.85;;
67274;SDS011;55463;52.324;5.122;2024-03-08T03:13:12;41.78;;;18.77;;
67274;SDS011;55463;52.324;5.122;2024-03-08T03:15:39;36.33;;;17.77;;
67274;SDS011;55463;52.324;5.122;2024-03-08T03:18:06;32.45;;;18.00;;
67274;SDS011;55463;52.324;5.122;2024-03-08T03:20:33;30.60;;;17.52;;
67274;SDS011;55463;52.324;5.122;2024-03-08T03:23:02;33.55;;;18.92;;
67274;SDS011;55463;52.324;5.122;2024-03-08T03:25:28;38.72;;;18.85;;
67274;SDS011;55463;52.324;5.122;2024-03-08T03:28:03;30.63;;;18.15;;
67274;SDS011;55463;52.324;5.122;2024-03-08T03:30:29;36.22;;;18.70;;
67274;SDS011;55463;52.324;5.122;2024-03-08T03:32:58;28.83;;;16.90;;
67274;SDS011;55463;52.324;5.122;2024-03-08T03:35:25;33.53;;;18.70;;
67274;SDS011;55463;52.324;5.122;2024-03-08T03:37:51;32.58;;;18.83;;
67274;SDS011;55463;52.324;5.122;2024-03-08T03:40:36;32.42;;;17.88;;
67274;SDS011;55463;52.324;5.122;2024-03-08T03:43:02;31.10;;;17.92;;
67274;SDS011;55463;52.324;5.122;2024-03-08T03:45:28;33.63;;;18.30;;
67274;SDS011;55463;52.324;5.122;2024-03-08T03:47:54;32.47;;;18.40;;
67274;SDS011;55463;52.324;5.122;2024-03-08T03:50:20;32.58;;;18.50;;
67274;SDS011;55463;52.324;5.122;2024-03-08T03:52:47;30.80;;;17.30;;
67274;SDS011;55463;52.324;5.122;2024-03-08T03:55:13;35.88;;;19.35;;
67274;SDS011;55463;52.324;5.122;2024-03-08T03:57:39;35.42;;;18.42;;
67274;SDS011;55463;52.324;5.122;2024-03-08T04:00:05;35.05;;;18.90;;
67274;SDS011;55463;52.324;5.122;2024-03-08T04:02:31;34.33;;;18.38;;
67274;SDS011;55463;52.324;5.122;2024-03-08T04:04:56;33.03;;;19.13;;
67274;SDS011;55463;52.324;5.122;2024-03-08T04:07:22;30.90;;;18.10;;
67274;SDS011;55463;52.324;5.122;2024-03-08T04:09:47;33.38;;;18.60;;
67274;SDS011;55463;52.324;5.122;2024-03-08T04:12:13;37.10;;;19.05;;
67274;SDS011;55463;52.324;5.122;2024-03-08T04:14:41;34.55;;;18.80;;
67274;SDS011;55463;52.324;5.122;2024-03-08T04:17:07;33.65;;;19.20;;
67274;SDS011;55463;52.324;5.122;2024-03-08T04:19:34;30.73;;;18.48;;
67274;SDS011;55463;52.324;5.122;2024-03-08T04:22:00;32.20;;;18.48;;
67274;SDS011;55463;52.324;5.122;2024-03-08T04:24:26;31.90;;;18.85;;
67274;SDS011;55463;52.324;5.122;2024-03-08T04:26:51;33.70;;;19.08;;
67274;SDS011;55463;52.324;5.122;2024-03-08T04:29:18;40.08;;;19.90;;
67274;SDS011;55463;52.324;5.122;2024-03-08T04:31:43;35.08;;;20.15;;
67274;SDS011;55463;52.324;5.122;2024-03-08T04:34:09;33.72;;;19.30;;
67274;SDS011;55463;52.324;5.122;2024-03-08T04:36:35;36.97;;;20.42;;
67274;SDS011;55463;52.324;5.122;2024-03-08T04:39:00;34.70;;;19.13;;
67274;SDS011;55463;52.324;5.122;2024-03-08T04:41:26;33.08;;;19.80;;
67274;SDS011;55463;52.324;5.122;2024-03-08T04:43:51;35.38;;;18.95;;
67274;SDS011;55463;52.324;5.122;2024-03-08T04:46:17;34.40;;;18.58;;
67274;SDS011;55463;52.324;5.122;2024-03-08T04:48:43;35.60;;;19.73;;
67274;SDS011;55463;52.324;5.122;2024-03-08T04:51:08;34.10;;;18.80;;
67274;SDS011;55463;52.324;5.122;2024-03-08T04:53:35;33.67;;;19.60;;
67274;SDS011;55463;52.324;5.122;2024-03-08T04:56:00;32.63;;;18.90;;
67274;SDS011;55463;52.324;5.122;2024-03-08T04:58:31;33.47;;;19.45;;
67274;SDS011;55463;52.324;5.122;2024-03-08T05:00:57;34.45;;;20.92;;
67274;SDS011;55463;52.324;5.122;2024-03-08T05:03:22;32.97;;;19.48;;
67274;SDS011;55463;52.324;5.122;2024-03-08T05:05:51;30.45;;;17.95;;
67274;SDS011;55463;52.324;5.122;2024-03-08T05:08:17;40.15;;;20.23;;
67274;SDS011;55463;52.324;5.122;2024-03-08T05:10:43;35.92;;;19.50;;
67274;SDS011;55463;52.324;5.122;2024-03-08T05:13:09;34.80;;;19.60;;
67274;SDS011;55463;52.324;5.122;2024-03-08T05:15:35;32.67;;;20.02;;
67274;SDS011;55463;52.324;5.122;2024-03-08T05:18:01;32.17;;;18.45;;
67274;SDS011;55463;52.324;5.122;2024-03-08T05:20:27;37.33;;;20.23;;
67274;SDS011;55463;52.324;5.122;2024-03-08T05:22:52;35.38;;;19.88;;
67274;SDS011;55463;52.324;5.122;2024-03-08T05:25:18;36.72;;;20.65;;
67274;SDS011;55463;52.324;5.122;2024-03-08T05:27:43;36.47;;;19.88;;
67274;SDS011;55463;52.324;5.122;2024-03-08T05:30:08;40.70;;;21.80;;
67274;SDS011;55463;52.324;5.122;2024-03-08T05:35:05;32.92;;;18.63;;
67274;SDS011;55463;52.324;5.122;2024-03-08T05:37:32;33.47;;;19.10;;
67274;SDS011;55463;52.324;5.122;2024-03-08T05:39:58;37.28;;;19.55;;
67274;SDS011;55463;52.324;5.122;2024-03-08T05:42:26;36.58;;;20.67;;
67274;SDS011;55463;52.324;5.122;2024-03-08T05:44:53;35.60;;;19.88;;
67274;SDS011;55463;52.324;5.122;2024-03-08T05:47:20;35.70;;;20.25;;
67274;SDS011;55463;52.324;5.122;2024-03-08T05:49:45;41.13;;;20.92;;
67274;SDS011;55463;52.324;5.122;2024-03-08T05:52:11;37.38;;;21.15;;
67274;SDS011;55463;52.324;5.122;2024-03-08T05:54:40;40.97;;;21.80;;
67274;SDS011;55463;52.324;5.122;2024-03-08T05:57:06;35.92;;;20.42;;
67274;SDS011;55463;52.324;5.122;2024-03-08T05:59:31;39.45;;;20.08;;
67274;SDS011;55463;52.324;5.122;2024-03-08T06:01:57;36.63;;;20.67;;
67274;SDS011;55463;52.324;5.122;2024-03-08T06:04:22;36.35;;;20.58;;
67274;SDS011;55463;52.324;5.122;2024-03-08T06:06:48;33.60;;;20.13;;
67274;SDS011;55463;52.324;5.122;2024-03-08T06:09:13;35.65;;;19.52;;
67274;SDS011;55463;52.324;5.122;2024-03-08T06:11:42;31.88;;;19.85;;
67274;SDS011;55463;52.324;5.122;2024-03-08T06:14:08;39.00;;;20.25;;
67274;SDS011;55463;52.324;5.122;2024-03-08T06:16:33;33.53;;;20.35;;
67274;SDS011;55463;52.324;5.122;2024-03-08T06:19:00;32.70;;;19.23;;
67274;SDS011;55463;52.324;5.122;2024-03-08T06:21:29;35.90;;;20.27;;
67274;SDS011;55463;52.324;5.122;2024-03-08T06:23:54;34.92;;;20.20;;
67274;SDS011;55463;52.324;5.122;2024-03-08T06:26:20;34.63;;;20.55;;
67274;SDS011;55463;52.324;5.122;2024-03-08T06:28:47;35.78;;;20.95;;
67274;SDS011;55463;52.324;5.122;2024-03-08T06:31:13;34.83;;;20.58;;
67274;SDS011;55463;52.324;5.122;2024-03-08T06:33:39;35.08;;;19.58;;
67274;SDS011;55463;52.324;5.122;2024-03-08T06:36:05;35.20;;;20.48;;
67274;SDS011;55463;52.324;5.122;2024-03-08T06:38:30;35.67;;;20.48;;
67274;SDS011;55463;52.324;5.122;2024-03-08T06:40:56;40.17;;;20.85;;
67274;SDS011;55463;52.324;5.122;2024-03-08T06:43:21;36.97;;;20.98;;
67274;SDS011;55463;52.324;5.122;2024-03-08T06:45:47;37.00;;;18.98;;
67274;SDS011;55463;52.324;5.122;2024-03-08T06:48:16;35.03;;;20.42;;
67274;SDS011;55463;52.324;5.122;2024-03-08T06:50:42;33.40;;;20.17;;
67274;SDS011;55463;52.324;5.122;2024-03-08T06:53:11;40.10;;;20.60;;
67274;SDS011;55463;52.324;5.122;2024-03-08T06:55:37;33.00;;;19.95;;
67274;SDS011;55463;52.324;5.122;2024-03-08T06:58:03;37.20;;;21.05;;
67274;SDS011;55463;52.324;5.122;2024-03-08T07:00:29;38.75;;;20.40;;
67274;SDS011;55463;52.324;5.122;2024-03-08T07:02:56;39.22;;;21.58;;
67274;SDS011;55463;52.324;5.122;2024-03-08T07:05:26;37.50;;;20.60;;
67274;SDS011;55463;52.324;5.122;2024-03-08T07:07:52;39.28;;;21.77;;
67274;SDS011;55463;52.324;5.122;2024-03-08T07:10:18;35.83;;;20.92;;
67274;SDS011;55463;52.324;5.122;2024-03-08T07:12:44;37.78;;;20.73;;
67274;SDS011;55463;52.324;5.122;2024-03-08T07:15:11;37.47;;;20.02;;
67274;SDS011;55463;52.324;5.122;2024-03-08T07:17:44;34.92;;;21.10;;
67274;SDS011;55463;52.324;5.122;2024-03-08T07:20:09;37.70;;;19.77;;
67274;SDS011;55463;52.324;5.122;2024-03-08T07:22:37;33.25;;;20.80;;
67274;SDS011;55463;52.324;5.122;2024-03-08T07:25:06;35.63;;;20.10;;
67274;SDS011;55463;52.324;5.122;2024-03-08T07:27:50;37.97;;;20.02;;
67274;SDS011;55463;52.324;5.122;2024-03-08T07:30:23;38.00;;;21.17;;
67274;SDS011;55463;52.324;5.122;2024-03-08T07:33:08;33.65;;;19.42;;
67274;SDS011;55463;52.324;5.122;2024-03-08T07:35:37;38.15;;;21.10;;
67274;SDS011;55463;52.324;5.122;2024-03-08T07:38:12;34.83;;;20.35;;
67274;SDS011;55463;52.324;5.122;2024-03-08T07:40:38;31.80;;;17.95;;
67274;SDS011;55463;52.324;5.122;2024-03-08T07:43:09;38.08;;;20.50;;
67274;SDS011;55463;52.324;5.122;2024-03-08T07:45:39;32.22;;;19.95;;
67274;SDS011;55463;52.324;5.122;2024-03-08T07:48:05;34.90;;;21.17;;
67274;SDS011;55463;52.324;5.122;2024-03-08T07:50:40;35.15;;;20.02;;
67274;SDS011;55463;52.324;5.122;2024-03-08T07:53:06;39.15;;;19.85;;
67274;SDS011;55463;52.324;5.122;2024-03-08T07:55:33;37.72;;;20.27;;
67274;SDS011;55463;52.324;5.122;2024-03-08T07:58:00;35.15;;;20.23;;
67274;SDS011;55463;52.324;5.122;2024-03-08T08:00:26;34.17;;;20.55;;
67274;SDS011;55463;52.324;5.122;2024-03-08T08:02:53;34.22;;;20.17;;
67274;SDS011;55463;52.324;5.122;2024-03-08T08:05:18;37.47;;;20.35;;
67274;SDS011;55463;52.324;5.122;2024-03-08T08:07:47;34.50;;;20.27;;
67274;SDS011;55463;52.324;5.122;2024-03-08T08:10:13;40.80;;;20.63;;
67274;SDS011;55463;52.324;5.122;2024-03-08T08:12:48;40.08;;;20.92;;
67274;SDS011;55463;52.324;5.122;2024-03-08T08:15:14;33.28;;;20.52;;
67274;SDS011;55463;52.324;5.122;2024-03-08T08:17:40;38.53;;;21.25;;
67274;SDS011;55463;52.324;5.122;2024-03-08T08:20:12;34.40;;;20.17;;
67274;SDS011;55463;52.324;5.122;2024-03-08T08:22:38;36.03;;;19.70;;
67274;SDS011;55463;52.324;5.122;2024-03-08T08:25:08;39.10;;;20.15;;
67274;SDS011;55463;52.324;5.122;2024-03-08T08:27:34;37.67;;;20.40;;
67274;SDS011;55463;52.324;5.122;2024-03-08T08:30:01;34.05;;;20.55;;
67274;SDS011;55463;52.324;5.122;2024-03-08T08:32:28;35.88;;;20.70;;
67274;SDS011;55463;52.324;5.122;2024-03-08T08:34:53;36.05;;;21.23;;
67274;SDS011;55463;52.324;5.122;2024-03-08T08:37:18;37.58;;;21.73;;
67274;SDS011;55463;52.324;5.122;2024-03-08T08:39:44;35.33;;;20.00;;
67274;SDS011;55463;52.324;5.122;2024-03-08T08:42:09;36.33;;;21.23;;
67274;SDS011;55463;52.324;5.122;2024-03-08T08:44:36;35.45;;;20.70;;
67274;SDS011;55463;52.324;5.122;2024-03-08T08:47:01;33.05;;;20.70;;
67274;SDS011;55463;52.324;5.122;2024-03-08T08:49:28;32.83;;;20.65;;
67274;SDS011;55463;52.324;5.122;2024-03-08T08:51:55;37.17;;;20.55;;
67274;SDS011;55463;52.324;5.122;2024-03-08T08:54:23;33.65;;;19.92;;
67274;SDS011;55463;52.324;5.122;2024-03-08T08:56:50;31.92;;;20.65;;
67274;SDS011;55463;52.324;5.122;2024-03-08T08:59:18;33.30;;;20.55;;
67274;SDS011;55463;52.324;5.122;2024-03-08T09:01:45;37.05;;;20.20;;
67274;SDS011;55463;52.324;5.122;2024-03-08T09:04:12;34.38;;;20.05;;
67274;SDS011;55463;52.324;5.122;2024-03-08T09:06:38;32.25;;;19.55;;
67274;SDS011;55463;52.324;5.122;2024-03-08T09:09:06;30.85;;;19.35;;
67274;SDS011;55463;52.324;5.122;2024-03-08T09:11:34;32.30;;;19.17;;
67274;SDS011;55463;52.324;5.122;2024-03-08T09:14:00;36.45;;;20.48;;
67274;SDS011;55463;52.324;5.122;2024-03-08T09:16:27;30.65;;;18.92;;
67274;SDS011;55463;52.324;5.122;2024-03-08T09:18:52;37.15;;;19.10;;
67274;SDS011;55463;52.324;5.122;2024-03-08T09:21:18;33.05;;;18.10;;
67274;SDS011;55463;52.324;5.122;2024-03-08T09:23:43;30.63;;;18.38;;
67274;SDS011;55463;52.324;5.122;2024-03-08T09:26:10;30.73;;;19.20;;
67274;SDS011;55463;52.324;5.122;2024-03-08T09:28:40;32.40;;;19.60;;
67274;SDS011;55463;52.324;5.122;2024-03-08T09:31:10;27.50;;;19.20;;
67274;SDS011;55463;52.324;5.122;2024-03-08T09:33:36;32.45;;;18.38;;
67274;SDS011;55463;52.324;5.122;2024-03-08T09:36:03;30.80;;;19.38;;
67274;SDS011;55463;52.324;5.122;2024-03-08T09:38:30;30.88;;;18.85;;
67274;SDS011;55463;52.324;5.122;2024-03-08T09:40:55;29.55;;;17.77;;
67274;SDS011;55463;52.324;5.122;2024-03-08T09:43:22;31.65;;;17.90;;
67274;SDS011;55463;52.324;5.122;2024-03-08T09:45:52;30.95;;;17.95;;
67274;SDS011;55463;52.324;5.122;2024-03-08T09:48:17;29.42;;;17.92;;
67274;SDS011;55463;52.324;5.122;2024-03-08T09:50:44;30.60;;;18.00;;
67274;SDS011;55463;52.324;5.122;2024-03-08T09:53:13;27.17;;;17.50;;
67274;SDS011;55463;52.324;5.122;2024-03-08T09:55:39;30.10;;;18.15;;
67274;SDS011;55463;52.324;5.122;2024-03-08T09:58:13;25.33;;;17.45;;
67274;SDS011;55463;52.324;5.122;2024-03-08T10:00:58;28.60;;;17.98;;
67274;SDS011;55463;52.324;5.122;2024-03-08T10:03:27;30.65;;;18.02;;
67274;SDS011;55463;52.324;5.122;2024-03-08T10:05:55;27.95;;;16.98;;
67274;SDS011;55463;52.324;5.122;2024-03-08T10:08:25;30.15;;;17.70;;
67274;SDS011;55463;52.324;5.122;2024-03-08T10:10:52;29.10;;;17.65;;
67274;SDS011;55463;52.324;5.122;2024-03-08T10:13:17;26.98;;;16.67;;
67274;SDS011;55463;52.324;5.122;2024-03-08T10:15:44;30.30;;;17.30;;
67274;SDS011;55463;52.324;5.122;2024-03-08T10:18:10;26.73;;;17.10;;
67274;SDS011;55463;52.324;5.122;2024-03-08T10:20:36;25.20;;;16.83;;
67274;SDS011;55463;52.324;5.122;2024-03-08T10:23:01;27.65;;;16.60;;
67274;SDS011;55463;52.324;5.122;2024-03-08T10:25:30;24.00;;;16.05;;
67274;SDS011;55463;52.324;5.122;2024-03-08T10:27:59;27.88;;;17.08;;
67274;SDS011;55463;52.324;5.122;2024-03-08T10:30:25;26.83;;;16.30;;
67274;SDS011;55463;52.324;5.122;2024-03-08T10:32:50;31.38;;;17.33;;
67274;SDS011;55463;52.324;5.122;2024-03-08T10:35:16;28.85;;;17.20;;
67274;SDS011;55463;52.324;5.122;2024-03-08T10:40:16;25.42;;;16.20;;
67274;SDS011;55463;52.324;5.122;2024-03-08T10:42:53;25.52;;;16.92;;
67274;SDS011;55463;52.324;5.122;2024-03-08T10:45:26;25.80;;;16.70;;
67274;SDS011;55463;52.324;5.122;2024-03-08T10:48:02;25.63;;;16.60;;
67274;SDS011;55463;52.324;5.122;2024-03-08T10:50:37;25.52;;;15.95;;
67274;SDS011;55463;52.324;5.122;2024-03-08T10:53:04;25.02;;;15.85;;
67274;SDS011;55463;52.324;5.122;2024-03-08T10:55:33;27.00;;;15.90;;
67274;SDS011;55463;52.324;5.122;2024-03-08T10:58:01;23.30;;;15.55;;
67274;SDS011;55463;52.324;5.122;2024-03-08T11:00:27;25.75;;;16.13;;
67274;SDS011;55463;52.324;5.122;2024-03-08T11:02:53;26.65;;;15.80;;
67274;SDS011;55463;52.324;5.122;2024-03-08T11:05:38;23.90;;;16.52;;
67274;SDS011;55463;52.324;5.122;2024-03-08T11:08:08;24.45;;;15.93;;
67274;SDS011;55463;52.324;5.122;2024-03-08T11:10:50;22.77;;;15.38;;
67274;SDS011;55463;52.324;5.122;2024-03-08T11:13:36;22.73;;;14.85;;
67274;SDS011;55463;52.324;5.122;2024-03-08T11:16:50;23.65;;;15.65;;
67274;SDS011;55463;52.324;5.122;2024-03-08T11:19:33;22.73;;;15.18;;
67274;SDS011;55463;52.324;5.122;2024-03-08T11:21:39;27.05;;;14.93;;
67274;SDS011;55463;52.324;5.122;2024-03-08T11:24:10;21.35;;;14.95;;
67274;SDS011;55463;52.324;5.122;2024-03-08T11:26:39;21.90;;;15.13;;
67274;SDS011;55463;52.324;5.122;2024-03-08T11:32:12;26.42;;;16.80;;
67274;SDS011;55463;52.324;5.122;2024-03-08T11:34:41;24.50;;;15.95;;
67274;SDS011;55463;52.324;5.122;2024-03-08T11:37:11;23.40;;;16.45;;
67274;SDS011;55463;52.324;5.122;2024-03-08T11:42:45;24.35;;;16.17;;
67274;SDS011;55463;52.324;5.122;2024-03-08T11:45:17;24.17;;;16.13;;
67274;SDS011;55463;52.324;5.122;2024-03-08T11:47:50;26.23;;;15.32;;
67274;SDS011;55463;52.324;5.122;2024-03-08T11:50:15;23.48;;;15.88;;
67274;SDS011;55463;52.324;5.122;2024-03-08T11:52:41;23.02;;;15.43;;
67274;SDS011;55463;52.324;5.122;2024-03-08T11:55:08;21.95;;;15.52;;
67274;SDS011;55463;52.324;5.122;2024-03-08T11:57:34;23.45;;;15.70;;
67274;SDS011;55463;52.324;5.122;2024-03-08T11:59:59;25.65;;;16.15;;
67274;SDS011;55463;52.324;5.122;2024-03-08T12:02:31;22.33;;;15.30;;
67274;SDS011;55463;52.324;5.122;2024-03-08T12:05:06;20.95;;;14.98;;
67274;SDS011;55463;52.324;5.122;2024-03-08T12:07:34;21.45;;;15.32;;
67274;SDS011;55463;52.324;5.122;2024-03-08T12:10:16;19.30;;;14.73;;
67274;SDS011;55463;52.324;5.122;2024-03-08T12:12:49;21.08;;;14.98;;
67274;SDS011;55463;52.324;5.122;2024-03-08T12:15:17;22.83;;;16.38;;
67274;SDS011;55463;52.324;5.122;2024-03-08T12:17:43;20.60;;;14.82;;
67274;SDS011;55463;52.324;5.122;2024-03-08T12:20:34;19.75;;;14.32;;
67274;SDS011;55463;52.324;5.122;2024-03-08T12:22:58;22.15;;;15.55;;
67274;SDS011;55463;52.324;5.122;2024-03-08T12:25:30;21.13;;;14.13;;
67274;SDS011;55463;52.324;5.122;2024-03-08T12:28:08;19.65;;;13.35;;
67274;SDS011;55463;52.324;5.122;2024-03-08T12:30:35;21.17;;;13.27;;
67274;SDS011;55463;52.324;5.122;2024-03-08T12:33:10;19.65;;;13.45;;
67274;SDS011;55463;52.324;5.122;2024-03-08T12:35:38;19.10;;;13.27;;
67274;SDS011;55463;52.324;5.122;2024-03-08T12:38:03;22.92;;;12.85;;
67274;SDS011;55463;52.324;5.122;2024-03-08T12:40:31;21.75;;;13.40;;
67274;SDS011;55463;52.324;5.122;2024-03-08T12:43:05;18.20;;;11.95;;
67274;SDS011;55463;52.324;5.122;2024-03-08T12:45:31;20.08;;;12.27;;
67274;SDS011;55463;52.324;5.122;2024-03-08T12:47:57;18.40;;;12.88;;
67274;SDS011;55463;52.324;5.122;2024-03-08T12:50:24;19.50;;;12.90;;
67274;SDS011;55463;52.324;5.122;2024-03-08T12:52:50;19.73;;;12.70;;
67274;SDS011;55463;52.324;5.122;2024-03-08T12:55:17;16.35;;;11.27;;
67274;SDS011;55463;52.324;5.122;2024-03-08T12:57:43;15.18;;;11.63;;
67274;SDS011;55463;52.324;5.122;2024-03-08T13:00:12;20.38;;;12.07;;
67274;SDS011;55463;52.324;5.122;2024-03-08T13:02:44;22.25;;;11.68;;
67274;SDS011;55463;52.324;5.122;2024-03-08T13:05:16;17.98;;;11.68;;
67274;SDS011;55463;52.324;5.122;2024-03-08T13:07:42;19.27;;;11.50;;
67274;SDS011;55463;52.324;5.122;2024-03-08T13:10:14;21.40;;;12.07;;
67274;SDS011;55463;52.324;5.122;2024-03-08T13:12:41;19.25;;;12.15;;
67274;SDS011;55463;52.324;5.122;2024-03-08T13:15:08;23.90;;;12.90;;
67274;SDS011;55463;52.324;5.122;2024-03-08T13:17:36;24.67;;;12.95;;
67274;SDS011;55463;52.324;5.122;2024-03-08T13:20:05;16.67;;;12.80;;
67274;SDS011;55463;52.324;5.122;2024-03-08T13:22:34;21.77;;;12.10;;
67274;SDS011;55463;52.324;5.122;2024-03-08T13:25:01;15.80;;;11.27;;
67274;SDS011;55463;52.324;5.122;2024-03-08T13:27:29;16.80;;;11.63;;
67274;SDS011;55463;52.324;5.122;2024-03-08T13:29:55;18.23;;;11.88;;
67274;SDS011;55463;52.324;5.122;2024-03-08T13:32:20;21.08;;;12.93;;
67274;SDS011;55463;52.324;5.122;2024-03-08T13:34:47;24.45;;;12.50;;
67274;SDS011;55463;52.324;5.122;2024-03-08T13:37:12;18.98;;;12.30;;
67274;SDS011;55463;52.324;5.122;2024-03-08T13:39:40;20.27;;;13.57;;
67274;SDS011;55463;52.324;5.122;2024-03-08T13:42:17;18.20;;;12.88;;
67274;SDS011;55463;52.324;5.122;2024-03-08T13:44:44;19.05;;;12.90;;
67274;SDS011;55463;52.324;5.122;2024-03-08T13:47:15;19.85;;;13.30;;
67274;SDS011;55463;52.324;5.122;2024-03-08T13:49:42;17.95;;;12.90;;
67274;SDS011;55463;52.324;5.122;2024-03-08T13:52:08;19.73;;;12.68;;
67274;SDS011;55463;52.324;5.122;2024-03-08T13:54:35;21.65;;;13.48;;
67274;SDS011;55463;52.324;5.122;2024-03-08T13:57:00;21.60;;;12.90;;
67274;SDS011;55463;52.324;5.122;2024-03-08T13:59:31;20.67;;;12.82;;
67274;SDS011;55463;52.324;5.122;2024-03-08T14:01:58;26.42;;;13.35;;
67274;SDS011;55463;52.324;5.122;2024-03-08T14:04:24;21.30;;;12.98;;
67274;SDS011;55463;52.324;5.122;2024-03-08T14:06:54;23.73;;;13.50;;
67274;SDS011;55463;52.324;5.122;2024-03-08T14:13:05;22.75;;;12.75;;
67274;SDS011;55463;52.324;5.122;2024-03-08T14:15:39;20.63;;;13.10;;
67274;SDS011;55463;52.324;5.122;2024-03-08T14:22:30;21.40;;;13.60;;
67274;SDS011;55463;52.324;5.122;2024-03-08T14:31:37;19.25;;;12.40;;
67274;SDS011;55463;52.324;5.122;2024-03-08T14:34:51;22.15;;;12.90;;
67274;SDS011;55463;52.324;5.122;2024-03-08T14:38:00;18.77;;;12.65;;
67274;SDS011;55463;52.324;5.122;2024-03-08T14:41:08;18.17;;;13.23;;
67274;SDS011;55463;52.324;5.122;2024-03-08T14:44:01;21.17;;;14.10;;
67274;SDS011;55463;52.324;5.122;2024-03-08T14:49:57;19.60;;;13.07;;
67274;SDS011;55463;52.324;5.122;2024-03-08T14:52:22;21.92;;;14.45;;
67274;SDS011;55463;52.324;5.122;2024-03-08T14:54:54;21.73;;;13.90;;